To NAV CANADA Home Page Login to a new session Search on AWWS site Feedback and Comments Disclaimer Vers la page française équivalente Tips FAQ What's new on the site To the Forecasts and Observations / NOTAM section To "File a Flight Plan" website Publications and other links Update of the User's profile FIC Telephone Numbers My Weather Data Folder Route Weather Data Regional Weather Data Local Weather Data To the Forecasts and Observations / NOTAM section
Request Generated 08/31/2016 at 04:17:34 UTC . Weather information available at that time is displayed.

METAR/TAF

TORONTO/LESTER B. PEARSON INTL/ON    

METAR CYYZ 310400Z 25007KT 15SM OVC180 23/19 A2998 RMK AC8 SLP151
DENSITY ALT 1600FT=
METAR CYYZ 310300Z 26011KT 15SM FEW050 FEW110 BKN200 24/19 A3000 RMK
SC1AC2CI5 SC TR SLP157 DENSITY ALT 1600FT=
METAR CYYZ 310200Z 24009KT 15SM FEW045 FEW110 BKN240 25/19 A3001 RMK
SC1AC1CI5 SLP161 DENSITY ALT 1700FT=

TAF CYYZ 310238Z 3103/0106 24010KT P6SM SCT070 BKN240
FM310800 20005KT P6SM SCT020 BKN050 TEMPO 3108/3116 BKN020 PROB30
3108/3114 3SM BR BKN005
FM311600 24007KT P6SM SCT070
FM311800 28012KT P6SM SKC
BECMG 3120/3122 34017KT
RMK NXT FCST BY 310600Z=
Your time UTC time
Weather data provided by Environment Canada and NAV CANADA